Time;durP1;ratioP1;P1;durP2;ratioP2;P2;SDS_P1;SDS_P2;PMS_P1;PMS_P2;Temp;Humidity;BMP_temperature;BMP_pressure;BME280_temperature;BME280_humidity;BME280_pressure;Samples;Min_cycle;Max_cycle;Signal;HPM_P1;HPM_P2
2022/06/01 00:00:24;;;;;;;19.65;13.07;;;;;;;14.18;77.12;100425.75;6076579;23;20018;-78
2022/06/01 00:02:50;;;;;;;15.48;11.75;;;;;;;14.11;77.53;100419.75;6098673;23;20056;-78
2022/06/01 00:05:16;;;;;;;26.23;13.50;;;;;;;14.08;77.02;100425.88;6100434;23;20065;-79
2022/06/01 00:07:41;;;;;;;29.60;16.35;;;;;;;14.01;77.53;100427.69;6125551;23;20017;-80
2022/06/01 00:10:08;;;;;;;33.40;17.77;;;;;;;14.02;77.67;100431.16;6126123;23;20069;-78
2022/06/01 00:12:35;;;;;;;27.23;16.02;;;;;;;13.98;77.72;100426.88;6075441;23;20022;-78
2022/06/01 00:15:03;;;;;;;28.45;15.63;;;;;;;14.03;77.78;100438.13;6098970;23;20030;-77
2022/06/01 00:17:30;;;;;;;29.25;16.45;;;;;;;14.02;77.88;100433.78;6098483;23;20051;-80
2022/06/01 00:19:56;;;;;;;24.73;15.48;;;;;;;13.93;78.11;100429.53;6075584;23;20026;-76
2022/06/01 00:22:22;;;;;;;28.58;18.00;;;;;;;13.90;77.65;100427.00;6129139;23;20054;-77
2022/06/01 00:24:48;;;;;;;29.55;18.30;;;;;;;13.95;78.06;100445.22;6136410;23;20014;-77
2022/06/01 00:27:16;;;;;;;34.10;17.27;;;;;;;13.88;78.30;100430.50;6079496;23;20026;-78
2022/06/01 00:29:43;;;;;;;22.63;15.35;;;;;;;13.94;78.55;100451.34;6126331;23;20026;-79
2022/06/01 00:32:12;;;;;;;27.67;16.77;;;;;;;13.96;78.51;100455.66;6099269;23;20024;-79
2022/06/01 00:34:40;;;;;;;34.35;18.92;;;;;;;13.92;78.25;100455.72;6099518;23;20021;-78
2022/06/01 00:37:08;;;;;;;35.50;18.65;;;;;;;13.87;78.43;100434.88;6125921;23;20045;-79
2022/06/01 00:39:35;;;;;;;23.05;15.00;;;;;;;13.94;78.57;100457.44;6124997;23;20049;-78
2022/06/01 00:42:12;;;;;;;32.75;17.88;;;;;;;13.94;78.69;100461.81;6125041;23;20022;-78
2022/06/01 00:44:39;;;;;;;34.58;19.23;;;;;;;13.91;78.98;100467.94;6124842;23;20017;-77
2022/06/01 00:47:05;;;;;;;33.42;19.52;;;;;;;13.91;78.70;100464.47;6124826;23;20022;-79
2022/06/01 00:49:34;;;;;;;35.95;20.83;;;;;;;13.90;78.86;100471.47;6123588;23;20373;-77
2022/06/01 00:52:00;;;;;;;29.90;18.98;;;;;;;13.91;78.99;100469.69;6098531;23;20071;-77
2022/06/01 00:54:26;;;;;;;30.45;17.48;;;;;;;13.89;79.03;100468.84;6098448;23;20022;-78
2022/06/01 00:57:00;;;;;;;31.52;19.88;;;;;;;13.92;79.06;100466.19;6099831;23;20023;-81
2022/06/01 00:59:33;;;;;;;44.28;22.67;;;;;;;13.85;79.24;100455.78;6099360;23;20022;-79
2022/06/01 01:02:02;;;;;;;52.28;23.35;;;;;;;13.88;79.30;100448.81;6102308;23;20026;-79
2022/06/01 01:04:31;;;;;;;44.85;24.13;;;;;;;13.95;79.32;100453.94;6101999;23;20018;-77
2022/06/01 01:07:03;;;;;;;60.15;25.42;;;;;;;13.99;79.48;100463.47;6100509;23;20021;-79
2022/06/01 01:09:30;;;;;;;59.28;26.65;;;;;;;13.91;79.49;100448.75;6099988;23;20024;-79
2022/06/01 01:11:59;;;;;;;52.33;24.20;;;;;;;14.03;79.79;100459.06;6099110;23;20022;-78
2022/06/01 01:14:30;;;;;;;63.58;28.67;;;;;;;14.01;79.65;100455.63;6074600;23;20396;-79
2022/06/01 01:16:59;;;;;;;70.93;29.60;;;;;;;14.07;79.73;100459.91;6098962;23;20456;-78
2022/06/01 01:19:37;;;;;;;80.90;30.92;;;;;;;14.07;80.05;100463.38;6099805;23;20383;-80
2022/06/01 01:22:10;;;;;;;82.80;30.88;;;;;;;14.07;79.87;100473.00;6123868;23;20025;-79
2022/06/01 02:12:41;;;;;;;56.47;26.52;;;;;;;14.65;80.41;100471.34;6124396;23;20073;-80
2022/06/01 02:15:16;;;;;;;52.83;26.42;;;;;;;14.65;80.52;100468.72;6074652;23;20530;-76
2022/06/01 02:17:51;;;;;;;61.65;28.85;;;;;;;14.71;80.52;100470.41;6124297;23;20073;-78
2022/06/01 02:20:42;;;;;;;51.97;25.42;;;;;;;14.66;80.53;100454.72;6098657;23;20468;-79
2022/06/01 02:23:13;;;;;;;65.65;29.20;;;;;;;14.86;80.37;100470.16;6124239;23;20502;-78
2022/06/01 02:25:44;;;;;;;53.85;27.42;;;;;;;14.83;80.51;100451.84;6074601;23;20045;-78
2022/06/01 02:28:11;;;;;;;46.75;25.92;;;;;;;15.03;80.65;100466.38;6098849;23;20081;-80
2022/06/01 02:30:40;;;;;;;59.20;29.23;;;;;;;15.06;80.35;100456.72;6102693;23;20028;-81
2022/06/01 02:33:11;;;;;;;46.25;26.00;;;;;;;15.22;80.55;100466.94;6101793;23;20092;-80
2022/06/01 02:35:41;;;;;;;44.50;25.65;;;;;;;15.35;80.61;100472.84;6104886;23;20022;-78
2022/06/01 02:38:16;;;;;;;50.50;26.75;;;;;;;15.38;80.43;100462.28;6102333;23;20029;-77
2022/06/01 02:40:42;;;;;;;52.35;27.65;;;;;;;15.53;80.20;100474.25;6133028;23;20029;-79
2022/06/01 02:43:09;;;;;;;48.25;26.85;;;;;;;15.63;80.27;100475.81;6147826;23;20049;-79
2022/06/01 02:45:34;;;;;;;46.50;25.85;;;;;;;15.73;80.34;100483.50;6104348;23;20018;-78
2022/06/01 02:48:02;;;;;;;45.50;26.70;;;;;;;15.77;79.95;100469.44;6099452;23;20014;-77
2022/06/01 02:50:31;;;;;;;44.70;26.40;;;;;;;15.88;79.56;100480.59;6074845;23;20456;-79
2022/06/01 02:52:57;;;;;;;46.42;26.20;;;;;;;15.98;80.02;100473.41;6098925;23;20021;-78
2022/06/01 02:55:24;;;;;;;45.10;26.95;;;;;;;16.08;80.12;100464.47;6124764;23;20017;-79
2022/06/01 02:57:51;;;;;;;48.47;26.15;;;;;;;16.10;80.08;100443.41;6076685;23;20104;-78
2022/06/01 03:00:22;;;;;;;42.75;25.33;;;;;;;16.33;79.90;100463.91;6099934;23;20320;-79
2022/06/01 03:02:51;;;;;;;41.67;25.63;;;;;;;16.39;79.82;100457.66;6099446;23;20393;-79
2022/06/01 03:05:22;;;;;;;39.03;25.10;;;;;;;16.49;79.55;100455.69;6098474;23;20367;-78
2022/06/01 03:07:48;;;;;;;34.95;22.60;;;;;;;16.56;79.35;100449.38;6125651;23;20412;-78
2022/06/01 03:10:15;;;;;;;34.33;23.05;;;;;;;16.76;79.49;100463.84;6124446;23;20024;-78
2022/06/01 03:12:41;;;;;;;33.35;22.55;;;;;;;16.90;78.95;100466.97;6123918;23;20021;-78
2022/06/01 03:15:10;;;;;;;40.05;22.75;;;;;;;17.07;78.99;100466.59;6126097;23;20040;-79
2022/06/01 03:17:36;;;;;;;30.65;21.52;;;;;;;17.11;78.64;100439.31;6101943;23;20104;-79
2022/06/01 03:20:07;;;;;;;31.13;21.33;;;;;;;17.43;78.36;100457.78;6127698;23;20021;-77
2022/06/01 03:22:36;;;;;;;29.63;20.45;;;;;;;17.70;77.94;100471.06;6131395;23;20029;-80
2022/06/01 03:25:04;;;;;;;30.45;20.10;;;;;;;17.95;77.44;100462.50;6100559;23;20086;-78
2022/06/01 03:27:30;;;;;;;26.33;18.90;;;;;;;18.19;76.85;100458.31;6126896;23;20021;-79
2022/06/01 03:29:56;;;;;;;26.48;18.50;;;;;;;18.43;76.53;100463.72;6131087;23;20428;-77
2022/06/01 03:32:23;;;;;;;26.77;17.42;;;;;;;18.66;76.14;100448.03;6099544;23;20013;-79
2022/06/01 03:34:49;;;;;;;22.88;15.85;;;;;;;18.89;75.31;100435.88;6100058;23;20029;-79
2022/06/01 03:37:15;;;;;;;20.05;15.80;;;;;;;19.16;74.57;100440.31;6100563;23;20024;-78
2022/06/01 03:39:42;;;;;;;21.40;16.02;;;;;;;19.29;73.70;100443.41;6076615;23;20081;-80
2022/06/01 03:42:08;;;;;;;20.55;14.05;;;;;;;19.44;73.44;100445.50;6099954;23;20084;-79
2022/06/01 03:47:18;;;;;;;18.35;13.95;;;;;;;19.84;71.52;100444.03;6127348;23;20345;-80
2022/06/01 03:49:44;;;;;;;19.90;14.40;;;;;;;20.02;70.80;100452.22;6100102;23;20097;-79
2022/06/01 03:52:11;;;;;;;18.30;14.10;;;;;;;20.10;70.31;100450.16;6099840;23;20481;-79
2022/06/01 03:54:38;;;;;;;16.88;12.95;;;;;;;20.27;69.21;100449.50;6099353;23;20146;-77
2022/06/01 03:57:05;;;;;;;14.52;12.23;;;;;;;20.41;68.72;100456.00;6099038;23;20155;-78
2022/06/01 03:59:31;;;;;;;17.83;12.23;;;;;;;20.47;67.57;100437.28;6099030;23;20334;-78
2022/06/01 04:02:05;;;;;;;15.85;12.70;;;;;;;20.62;66.39;100456.94;6126133;23;20037;-78
2022/06/01 04:04:33;;;;;;;15.63;12.07;;;;;;;20.56;66.14;100438.69;6100900;23;20522;-80
2022/06/01 04:06:59;;;;;;;14.50;11.63;;;;;;;20.67;65.71;100452.31;6101299;23;20046;-79
2022/06/01 04:09:25;;;;;;;15.68;12.20;;;;;;;20.86;65.06;100464.81;6125684;23;20449;-80
2022/06/01 04:11:52;;;;;;;13.75;11.13;;;;;;;20.99;64.29;100465.16;6126246;23;20022;-80
2022/06/01 04:14:19;;;;;;;13.77;11.13;;;;;;;21.13;63.88;100456.66;6075855;23;20021;-78
2022/06/01 04:16:46;;;;;;;12.05;10.70;;;;;;;21.31;63.61;100462.94;6051827;23;20057;-80
2022/06/01 04:19:16;;;;;;;13.30;10.90;;;;;;;21.33;62.89;100447.88;6076363;23;20108;-83
2022/06/01 04:21:46;;;;;;;13.05;10.52;;;;;;;21.56;62.65;100461.88;6100714;23;20052;-82
2022/06/01 04:24:14;;;;;;;12.57;9.93;;;;;;;21.60;62.01;100455.53;6100009;23;20503;-79
2022/06/01 04:26:47;;;;;;;11.10;10.00;;;;;;;21.53;61.28;100420.50;6125627;23;20104;-80
2022/06/01 04:29:15;;;;;;;12.57;10.15;;;;;;;21.78;60.94;100433.53;6075759;23;20462;-78
2022/06/01 04:31:42;;;;;;;12.77;10.40;;;;;;;22.08;60.30;100440.97;6098978;23;20033;-81
2022/06/01 04:34:08;;;;;;;11.07;9.95;;;;;;;22.22;59.70;100458.88;6100192;23;20110;-77
2022/06/01 04:36:33;;;;;;;14.05;9.50;;;;;;;22.14;59.44;100444.28;6052501;23;20467;-80
2022/06/01 04:38:59;;;;;;;11.55;10.07;;;;;;;22.16;58.77;100458.31;6125929;23;20018;-77
2022/06/01 04:41:25;;;;;;;14.73;10.00;;;;;;;22.16;58.71;100453.88;6080904;23;20017;-79
2022/06/01 04:43:52;;;;;;;11.05;9.57;;;;;;;22.39;58.15;100455.44;6113185;23;20030;-80
2022/06/01 04:46:18;;;;;;;10.23;8.63;;;;;;;22.54;57.70;100460.94;6106884;23;20018;-78
2022/06/01 04:48:44;;;;;;;10.88;8.95;;;;;;;22.65;57.41;100455.13;6104988;23;20104;-81
2022/06/01 04:51:10;;;;;;;12.63;8.80;;;;;;;22.98;57.10;100472.97;6126999;23;20029;-79
2022/06/01 04:53:36;;;;;;;12.73;8.30;;;;;;;23.11;56.37;100462.59;6100507;23;20018;-79
2022/06/01 04:56:02;;;;;;;12.73;8.02;;;;;;;23.21;55.49;100452.38;6099667;23;20025;-78
2022/06/01 04:58:28;;;;;;;9.88;7.68;;;;;;;23.56;55.35;100457.66;6102315;23;20021;-79
2022/06/01 05:00:54;;;;;;;10.93;7.47;;;;;;;23.65;54.74;100457.16;6127763;23;20484;-79
2022/06/01 05:03:20;;;;;;;9.85;7.90;;;;;;;23.64;54.30;100454.56;6102394;23;20028;-79
2022/06/01 05:05:46;;;;;;;15.02;8.18;;;;;;;23.45;54.07;100448.47;6078092;23;20456;-77
2022/06/01 05:08:16;;;;;;;10.85;8.30;;;;;;;23.63;53.84;100459.03;6102352;23;20033;-77
2022/06/01 05:10:42;;;;;;;9.33;8.37;;;;;;;23.78;53.15;100462.69;6105367;23;20028;-78
2022/06/01 05:13:10;;;;;;;10.98;8.52;;;;;;;23.83;53.11;100457.13;6130970;23;20022;-78
2022/06/01 05:15:51;;;;;;;12.85;7.95;;;;;;;23.97;52.68;100454.59;6082979;23;20028;-79
2022/06/01 05:18:24;;;;;;;11.68;8.38;;;;;;;24.08;52.25;100442.53;6084025;23;20014;-77
2022/06/01 05:20:53;;;;;;;11.18;7.82;;;;;;;24.23;51.98;100431.03;6083896;23;20112;-76
2022/06/01 05:23:19;;;;;;;9.13;7.88;;;;;;;24.56;51.65;100454.00;6098890;23;20032;-80
2022/06/01 05:25:47;;;;;;;8.52;7.70;;;;;;;24.79;51.24;100442.03;6126219;23;20026;-78
2022/06/01 05:28:18;;;;;;;12.70;8.20;;;;;;;25.01;50.43;100447.94;6123869;23;20017;-79
2022/06/01 05:30:44;;;;;;;10.95;8.65;;;;;;;25.13;49.73;100447.19;6124210;23;20026;-78
2022/06/01 05:33:10;;;;;;;12.15;8.63;;;;;;;25.30;49.47;100443.50;6068418;23;20026;-79
2022/06/01 05:35:37;;;;;;;8.70;7.30;;;;;;;25.48;48.92;100433.59;6077838;23;20024;-79
2022/06/01 05:38:06;;;;;;;9.95;8.35;;;;;;;25.62;48.35;100429.19;6099900;23;20069;-78
2022/06/01 05:40:32;;;;;;;13.07;7.82;;;;;;;25.84;48.19;100429.56;6126378;23;20360;-78
2022/06/01 05:42:59;;;;;;;11.27;7.40;;;;;;;26.16;47.98;100434.66;6100179;23;20025;-79
2022/06/01 05:45:26;;;;;;;10.02;6.65;;;;;;;26.69;47.35;100430.41;6075126;23;20018;-78
2022/06/01 05:47:52;;;;;;;8.02;6.35;;;;;;;28.15;47.12;100431.94;6098786;23;20024;-79
2022/06/01 05:50:18;;;;;;;8.70;5.68;;;;;;;29.87;44.26;100380.50;6099865;23;20018;-78
2022/06/01 05:52:45;;;;;;;9.02;5.70;;;;;;;32.06;40.36;100416.63;6125008;23;20053;-79
2022/06/01 05:55:12;;;;;;;6.07;4.78;;;;;;;33.92;36.77;100412.81;6099593;23;20128;-78
2022/06/01 05:57:39;;;;;;;7.47;4.22;;;;;;;35.39;33.95;100405.28;6074177;23;20096;-78
2022/06/01 06:00:09;;;;;;;6.97;3.80;;;;;;;36.41;31.44;100406.28;6074845;23;20018;-79
2022/06/01 06:02:39;;;;;;;4.90;3.40;;;;;;;37.31;29.84;100409.94;6099229;23;20026;-78
2022/06/01 06:06:11;;;;;;;5.43;3.42;;;;;;;38.03;27.61;100400.84;6098697;23;20483;-78
2022/06/01 06:07:56;;;;;;;6.80;3.50;;;;;;;39.31;26.57;100398.38;6097772;23;20021;-78
2022/06/01 06:10:23;;;;;;;4.30;3.28;;;;;;;40.58;24.93;100386.38;6097890;23;20021;-77
2022/06/01 06:12:49;;;;;;;4.75;3.22;;;;;;;41.75;22.76;100392.13;6099258;23;20025;-77
2022/06/01 06:15:16;;;;;;;4.93;3.08;;;;;;;42.69;21.23;100383.25;6076308;23;20018;-77
2022/06/01 06:17:43;;;;;;;6.60;3.00;;;;;;;43.67;20.10;100388.91;6102438;23;20073;-77
2022/06/01 06:20:09;;;;;;;4.15;2.40;;;;;;;44.55;19.18;100392.75;6103289;23;20022;-76
2022/06/01 06:22:35;;;;;;;4.43;2.78;;;;;;;44.88;17.62;100382.53;6133473;23;20017;-77
2022/06/01 06:25:03;;;;;;;4.85;2.75;;;;;;;45.42;17.54;100388.25;6090014;23;20014;-77
2022/06/01 06:27:29;;;;;;;3.28;2.83;;;;;;;44.89;16.83;100386.97;6115269;23;20029;-76
2022/06/01 06:29:55;;;;;;;5.55;2.47;;;;;;;44.31;17.01;100387.00;6105156;23;20013;-78
2022/06/01 06:32:22;;;;;;;3.97;2.90;;;;;;;43.27;17.26;100378.94;6075178;23;20048;-78
2022/06/01 06:34:48;;;;;;;4.63;2.85;;;;;;;43.25;17.16;100386.53;6098564;23;20356;-78
2022/06/01 06:37:14;;;;;;;5.13;3.65;;;;;;;42.73;17.02;100376.28;6098707;23;20129;-78
2022/06/01 06:39:39;;;;;;;7.38;6.68;;;;;;;43.25;16.76;100367.38;6124738;23;20013;-78
2022/06/01 06:42:06;;;;;;;10.65;4.88;;;;;;;43.46;16.33;100380.75;6123944;23;20069;-80
2022/06/01 06:44:36;;;;;;;9.65;7.88;;;;;;;43.56;16.40;100360.28;6099521;23;20080;-82
2022/06/01 06:47:04;;;;;;;4.95;2.60;;;;;;;42.77;16.53;100380.25;6099963;23;20029;-82
2022/06/01 06:49:32;;;;;;;4.07;3.60;;;;;;;41.75;16.99;100348.44;6125946;23;20022;-81
2022/06/01 06:51:58;;;;;;;2.92;2.53;;;;;;;41.79;16.93;100376.19;6098687;23;20013;-79
2022/06/01 06:54:25;;;;;;;3.80;2.83;;;;;;;42.23;16.37;100358.41;6123208;23;20041;-79
2022/06/01 06:56:51;;;;;;;3.30;2.78;;;;;;;42.85;15.98;100360.09;6097847;23;20396;-79
2022/06/01 06:59:17;;;;;;;7.72;4.20;;;;;;;44.28;15.20;100357.31;6098771;23;20014;-77
2022/06/01 07:01:43;;;;;;;8.77;4.60;;;;;;;45.06;15.30;100368.81;6126721;23;20021;-78
2022/06/01 07:04:10;;;;;;;8.60;6.38;;;;;;;45.54;14.38;100361.72;6126384;23;20010;-79
2022/06/01 07:06:36;;;;;;;11.68;8.65;;;;;;;46.40;13.64;100370.78;6098065;23;20018;-78
2022/06/01 07:09:03;;;;;;;15.95;14.38;;;;;;;47.12;13.00;100364.19;6123787;23;20018;-79
2022/06/01 07:11:31;;;;;;;22.80;20.58;;;;;;;47.86;12.55;100365.34;6123972;23;20100;-77
2022/06/01 07:13:58;;;;;;;8.98;6.18;;;;;;;47.75;12.39;100358.81;6123411;23;20022;-78
2022/06/01 07:16:27;;;;;;;9.95;6.63;;;;;;;48.40;12.22;100358.56;6097766;23;20017;-78
2022/06/01 07:18:55;;;;;;;7.15;2.42;;;;;;;48.69;12.03;100362.03;6073863;23;20021;-80
2022/06/01 07:21:22;;;;;;;14.02;12.70;;;;;;;48.91;11.96;100368.66;6074167;23;20025;-78
2022/06/01 07:23:49;;;;;;;3.85;2.67;;;;;;;49.13;11.52;100360.41;6097425;23;20018;-79
2022/06/01 07:26:19;;;;;;;34.25;15.43;;;;;;;49.66;11.18;100352.44;6099728;23;20025;-78
2022/06/01 07:28:45;;;;;;;4.82;3.03;;;;;;;49.91;10.64;100373.13;6124414;23;20022;-79
2022/06/01 07:31:13;;;;;;;10.95;8.60;;;;;;;49.31;10.55;100373.06;6099047;23;20017;-79
2022/06/01 07:33:41;;;;;;;45.13;41.13;;;;;;;49.84;10.92;100365.06;6074718;23;20093;-78
2022/06/01 07:36:11;;;;;;;31.73;28.52;;;;;;;50.39;10.16;100372.44;6098587;23;20025;-78
2022/06/01 07:44:20;;;;;;;26.30;23.98;;;;;;;52.32;9.73;100365.28;6124202;23;20419;-77
2022/06/01 07:46:46;;;;;;;16.05;14.27;;;;;;;52.74;9.71;100367.94;6078144;23;20104;-78
2022/06/01 07:49:16;;;;;;;16.92;15.23;;;;;;;53.10;8.83;100374.22;6076077;23;20653;-78
2022/06/01 07:51:41;;;;;;;8.07;7.10;;;;;;;53.25;8.97;100358.56;6123549;23;20085;-77
2022/06/01 07:54:08;;;;;;;16.05;14.38;;;;;;;53.13;8.61;100370.00;6098231;23;20470;-79
2022/06/01 07:56:34;;;;;;;6.13;3.42;;;;;;;53.16;8.22;100370.28;6074000;23;20022;-79
2022/06/01 07:59:01;;;;;;;18.58;16.55;;;;;;;53.49;8.23;100357.88;6098228;23;20068;-77
2022/06/01 08:01:28;;;;;;;18.17;16.35;;;;;;;53.66;8.12;100358.31;6075469;23;20024;-78
2022/06/01 08:03:58;;;;;;;21.73;19.63;;;;;;;53.46;8.28;100367.63;6099358;23;20018;-80
2022/06/01 08:06:26;;;;;;;12.05;11.02;;;;;;;53.40;8.70;100366.00;6125376;23;20472;-77
2022/06/01 08:08:53;;;;;;;10.93;10.00;;;;;;;53.64;8.31;100359.75;6125117;23;20023;-79
2022/06/01 08:11:20;;;;;;;16.10;12.27;;;;;;;54.03;7.85;100367.22;6124688;23;20022;-76
2022/06/01 08:13:46;;;;;;;3.40;3.10;;;;;;;53.95;7.81;100367.88;6075002;23;20021;-77
2022/06/01 08:16:12;;;;;;;6.93;4.22;;;;;;;53.48;8.63;100373.72;6125127;23;20364;-78
2022/06/01 08:18:38;;;;;;;8.38;5.13;;;;;;;53.27;8.40;100373.88;6099588;23;20018;-78
2022/06/01 08:21:04;;;;;;;7.40;3.53;;;;;;;53.25;8.14;100370.50;6124822;23;20088;-77
2022/06/01 08:23:32;;;;;;;8.52;7.65;;;;;;;53.46;8.04;100370.41;6125051;23;20355;-78
2022/06/01 08:25:59;;;;;;;6.45;3.28;;;;;;;53.68;7.96;100378.31;6099224;23;20096;-79
2022/06/01 08:28:26;;;;;;;8.18;3.30;;;;;;;51.76;8.24;100363.31;6050651;23;20022;-78
2022/06/01 08:30:52;;;;;;;11.85;3.97;;;;;;;51.76;8.47;100369.66;6098618;23;20053;-80
2022/06/01 08:33:18;;;;;;;4.65;3.40;;;;;;;51.47;9.03;100366.56;6124693;23;20018;-78
2022/06/01 08:35:48;;;;;;;6.00;3.35;;;;;;;51.21;8.08;100372.91;6075097;23;20028;-79
2022/06/01 08:38:15;;;;;;;7.00;3.67;;;;;;;50.34;8.91;100357.44;6099347;23;20021;-79
2022/06/01 08:40:53;;;;;;;11.05;3.67;;;;;;;50.17;8.96;100363.13;6124819;23;20066;-80
2022/06/01 08:43:25;;;;;;;7.90;3.77;;;;;;;50.59;8.38;100339.38;6100384;23;20029;-82
2022/06/01 08:45:58;;;;;;;3.75;3.17;;;;;;;51.44;8.78;100354.09;6100322;23;20017;-82
2022/06/01 08:48:39;;;;;;;6.07;3.30;;;;;;;50.72;8.90;100342.75;6099709;23;20100;-83
2022/06/01 08:51:06;;;;;;;7.15;3.40;;;;;;;50.01;9.26;100355.81;6076904;23;20048;-82
2022/06/01 08:53:33;;;;;;;6.07;3.72;;;;;;;48.07;10.13;100360.22;6100786;23;20081;-81
2022/06/01 08:56:09;;;;;;;5.57;3.40;;;;;;;47.67;10.69;100315.16;6101212;23;20020;-82
2022/06/01 08:59:33;;;;;;;3.95;3.55;;;;;;;48.16;10.33;100355.09;6125293;23;20017;-78
2022/06/01 09:02:08;;;;;;;11.70;3.42;;;;;;;47.24;10.67;100357.81;6064463;23;20026;-80
2022/06/01 09:05:03;;;;;;;7.13;3.80;;;;;;;47.39;10.68;100355.38;6039850;23;20015;-79
2022/06/01 09:07:48;;;;;;;6.30;3.75;;;;;;;47.70;10.61;100352.38;6121902;23;20026;-80
2022/06/01 09:10:21;;;;;;;8.35;4.15;;;;;;;46.01;10.87;100357.47;6124377;23;20018;-79
2022/06/01 09:13:00;;;;;;;7.85;3.53;;;;;;;45.19;12.58;100354.09;6097991;23;20077;-79
2022/06/01 09:15:28;;;;;;;6.70;3.80;;;;;;;45.17;11.82;100350.72;6056674;23;20044;-79
2022/06/01 09:17:55;;;;;;;7.20;4.00;;;;;;;44.24;12.93;100361.56;6074883;23;20022;-79
2022/06/01 09:23:10;;;;;;;6.53;3.70;;;;;;;44.16;13.30;100356.34;6101972;23;20087;-78
2022/06/01 09:25:38;;;;;;;7.93;4.22;;;;;;;44.52;12.42;100352.91;6103297;23;20014;-79
2022/06/01 09:28:20;;;;;;;6.05;3.35;;;;;;;42.79;13.98;100358.19;6106910;23;20021;-80
2022/06/01 09:31:02;;;;;;;10.80;3.92;;;;;;;41.17;14.89;100360.59;6078419;23;20017;-80
2022/06/01 09:33:32;;;;;;;7.85;3.83;;;;;;;39.72;16.10;100352.59;6099084;23;20081;-80
2022/06/01 09:36:07;;;;;;;8.57;3.77;;;;;;;39.22;16.91;100368.72;6124435;23;20010;-82
2022/06/01 09:38:53;;;;;;;9.07;4.50;;;;;;;38.56;17.74;100372.94;6127854;23;20241;-78
2022/06/01 09:41:26;;;;;;;7.60;3.90;;;;;;;38.08;17.81;100363.09;6074464;23;20127;-78
2022/06/01 09:44:04;;;;;;;5.60;3.47;;;;;;;37.24;18.82;100371.81;6098557;23;20021;-79
2022/06/01 09:46:35;;;;;;;4.35;3.40;;;;;;;36.13;19.24;100364.09;6097731;23;20017;-80
2022/06/01 09:49:25;;;;;;;7.57;3.35;;;;;;;35.52;20.47;100388.63;6074835;23;20110;-81
2022/06/01 09:52:12;;;;;;;4.95;3.63;;;;;;;34.68;20.81;100390.94;6098248;23;20016;-79
2022/06/01 09:54:45;;;;;;;4.05;2.60;;;;;;;33.31;22.19;100390.75;6074413;23;20020;-79
2022/06/01 09:57:25;;;;;;;5.43;2.40;;;;;;;32.41;23.78;100395.59;6099109;23;20021;-80
2022/06/01 10:08:28;;;;;;;4.75;3.00;;;;;;;30.13;26.63;100399.84;6121439;23;20025;-80
2022/06/01 10:11:03;;;;;;;4.45;2.63;;;;;;;29.82;27.18;100429.13;6094361;23;20077;-79
2022/06/01 10:13:33;;;;;;;4.90;2.70;;;;;;;29.07;28.46;100428.69;6103701;23;20032;-79
2022/06/01 10:16:12;;;;;;;4.53;3.00;;;;;;;28.26;29.51;100426.66;6108922;23;20093;-79
2022/06/01 10:18:41;;;;;;;6.20;3.10;;;;;;;27.59;30.72;100427.00;6079856;23;20013;-79
2022/06/01 10:21:11;;;;;;;3.53;2.72;;;;;;;27.14;31.50;100432.75;6074277;23;20025;-77
2022/06/01 10:23:51;;;;;;;4.57;4.13;;;;;;;27.01;33.09;100428.25;6099548;23;20101;-77
2022/06/01 10:26:21;;;;;;;6.82;5.03;;;;;;;27.02;32.76;100416.63;6100360;23;20025;-77
2022/06/01 10:28:54;;;;;;;5.10;3.30;;;;;;;27.06;32.96;100419.94;6074819;23;20025;-78
2022/06/01 10:31:31;;;;;;;7.93;3.40;;;;;;;27.23;33.16;100428.59;6124655;23;20044;-78
2022/06/01 10:34:02;;;;;;;9.48;3.13;;;;;;;27.34;33.05;100429.56;6098569;23;20017;-79
2022/06/01 10:37:06;;;;;;;5.07;3.28;;;;;;;27.06;33.40;100428.78;6124413;23;20013;-78
2022/06/01 10:39:39;;;;;;;7.68;2.78;;;;;;;26.61;34.00;100410.41;6058103;23;20049;-78
2022/06/01 10:42:17;;;;;;;4.57;3.17;;;;;;;26.71;34.09;100431.13;6099968;23;20018;-82
2022/06/01 10:44:53;;;;;;;5.18;3.20;;;;;;;26.40;35.04;100449.19;6100658;23;20025;-80
2022/06/01 10:47:32;;;;;;;3.42;3.13;;;;;;;25.99;36.15;100451.72;6083663;23;20349;-82
2022/06/01 10:50:07;;;;;;;5.05;3.35;;;;;;;25.68;36.29;100450.97;6099673;23;20028;-79
2022/06/01 10:52:46;;;;;;;4.95;3.15;;;;;;;25.35;37.54;100457.41;6075468;23;20029;-81
2022/06/01 10:55:18;;;;;;;4.97;3.25;;;;;;;24.81;38.51;100428.66;6099072;23;20448;-81
2022/06/01 10:57:47;;;;;;;5.68;3.08;;;;;;;24.78;39.52;100468.75;6078586;23;20348;-82
2022/06/01 11:00:17;;;;;;;3.65;3.30;;;;;;;24.53;40.30;100480.78;6080022;23;20356;-83
2022/06/01 11:03:06;;;;;;;9.18;3.28;;;;;;;24.46;40.49;100479.38;6127000;23;20123;-82
2022/06/01 11:05:59;;;;;;;3.55;2.85;;;;;;;24.33;40.97;100469.47;6127929;23;20025;-79
2022/06/01 11:08:25;;;;;;;4.97;3.00;;;;;;;24.26;41.04;100477.88;6102660;23;20049;-81
2022/06/01 11:10:57;;;;;;;3.55;2.47;;;;;;;24.17;41.96;100473.88;6129888;23;20455;-82
2022/06/01 11:13:38;;;;;;;6.65;2.35;;;;;;;24.11;41.92;100477.75;6105233;23;20029;-80
2022/06/01 11:16:08;;;;;;;8.02;3.88;;;;;;;23.99;42.30;100451.88;6104495;23;20022;-82
2022/06/01 11:18:50;;;;;;;7.47;2.50;;;;;;;24.20;42.07;100471.94;6085590;23;20004;-80
2022/06/01 11:21:39;;;;;;;2.63;2.10;;;;;;;24.17;42.25;100473.88;6130181;23;20021;-81
2022/06/01 11:24:23;;;;;;;3.90;2.40;;;;;;;24.19;42.18;100475.53;6123325;23;20018;-78
2022/06/01 11:27:01;;;;;;;4.85;2.95;;;;;;;24.17;42.36;100476.53;6123030;23;20026;-79
2022/06/01 11:30:01;;;;;;;3.72;2.50;;;;;;;24.18;42.58;100480.94;6123627;23;20365;-77
2022/06/01 11:32:37;;;;;;;2.78;2.25;;;;;;;23.96;42.85;100457.31;6098004;23;20017;-78
2022/06/01 11:35:17;;;;;;;4.95;2.70;;;;;;;23.99;42.78;100470.47;6097498;23;20044;-79
2022/06/01 11:38:13;;;;;;;4.95;2.85;;;;;;;24.03;43.27;100472.03;6075138;23;20424;-81
2022/06/01 11:41:03;;;;;;;3.50;2.65;;;;;;;24.01;43.64;100468.59;6099237;23;20480;-78
2022/06/01 11:43:36;;;;;;;3.80;2.60;;;;;;;23.98;43.41;100474.06;6078250;23;20472;-79
2022/06/01 11:46:04;;;;;;;3.17;2.60;;;;;;;23.83;43.98;100460.66;6125763;23;20022;-79
2022/06/01 11:48:34;;;;;;;3.47;2.50;;;;;;;23.68;44.33;100449.03;6100247;23;20033;-80
2022/06/01 11:51:21;;;;;;;4.32;2.33;;;;;;;24.06;44.29;100461.19;6099726;23;20018;-79
2022/06/01 11:54:08;;;;;;;3.00;2.25;;;;;;;24.02;44.39;100452.53;6126075;23;20152;-81
2022/06/01 11:56:54;;;;;;;4.47;2.50;;;;;;;24.52;44.21;100463.09;6103167;23;20072;-80
2022/06/01 11:59:45;;;;;;;5.38;2.70;;;;;;;24.73;43.65;100465.50;6101268;23;20030;-80
2022/06/01 12:02:40;;;;;;;5.05;2.78;;;;;;;24.54;43.37;100466.53;6105628;23;20021;-79
2022/06/01 12:05:34;;;;;;;2.75;2.40;;;;;;;24.31;44.42;100457.16;6100017;23;20018;-81
2022/06/01 12:08:17;;;;;;;3.78;2.80;;;;;;;24.32;44.06;100462.44;6126033;23;20025;-80
2022/06/01 12:11:14;;;;;;;6.32;4.97;;;;;;;24.38;44.36;100466.53;6103545;23;20029;-81
2022/06/01 12:13:43;;;;;;;7.55;4.00;;;;;;;24.51;44.14;100464.03;6106782;23;20030;-80
2022/06/01 12:16:25;;;;;;;6.22;5.07;;;;;;;24.41;43.81;100468.16;6053339;23;20109;-81
2022/06/01 12:19:30;;;;;;;15.98;5.85;;;;;;;24.16;44.79;100469.56;6101901;23;20089;-80
2022/06/01 12:22:03;;;;;;;8.93;7.63;;;;;;;23.80;45.01;100451.97;6042671;23;20046;-80
2022/06/01 12:30:13;;;;;;;8.27;4.50;;;;;;;23.68;45.31;100469.41;6104467;23;20056;-80
2022/06/01 12:32:58;;;;;;;9.52;5.15;;;;;;;23.62;45.74;100465.28;6131229;23;20021;-80
2022/06/01 12:35:29;;;;;;;9.70;4.90;;;;;;;23.92;45.05;100464.59;6104805;23;20021;-79
2022/06/01 12:38:01;;;;;;;14.15;4.85;;;;;;;24.03;44.81;100464.03;6081733;23;20468;-81
2022/06/01 12:40:28;;;;;;;6.15;3.83;;;;;;;23.95;45.00;100442.31;6128116;23;20021;-80
2022/06/01 12:43:00;;;;;;;10.73;3.90;;;;;;;24.10;44.83;100457.44;6104978;23;20013;-79
2022/06/01 12:45:36;;;;;;;8.82;3.25;;;;;;;24.16;44.26;100456.25;6056196;23;20029;-82
2022/06/01 12:48:16;;;;;;;7.82;3.90;;;;;;;24.16;44.01;100445.63;6103230;23;20025;-80
2022/06/01 12:50:52;;;;;;;7.07;3.92;;;;;;;24.15;43.87;100427.97;6104002;23;20088;-79